Time;durP1;ratioP1;P1;durP2;ratioP2;P2;SDS_P1;SDS_P2;PMS_P1;PMS_P2;Temp;Humidity;BMP_temperature;BMP_pressure;BME280_temperature;BME280_humidity;BME280_pressure;Samples;Min_cycle;Max_cycle;Signal;HPM_P1;HPM_P2
2023/05/04 00:00:56;;;;;;;;;;;9.00;58.50;;;;;;5031916;28;20015;-77
2023/05/04 00:03:22;;;;;;;;;;;9.00;58.50;;;;;;5019119;28;20051;-78
2023/05/04 00:05:47;;;;;;;;;;;9.00;58.50;;;;;;5031491;28;19936;-78
2023/05/04 00:08:12;;;;;;;;;;;8.90;58.50;;;;;;5033310;28;19924;-78
2023/05/04 00:10:38;;;;;;;;;;;8.90;58.60;;;;;;5019105;28;19928;-78
2023/05/04 00:13:03;;;;;;;;;;;8.90;58.60;;;;;;5001481;28;19967;-78
2023/05/04 00:15:29;;;;;;;;;;;8.80;58.60;;;;;;5013758;28;20280;-78
2023/05/04 00:17:55;;;;;;;;;;;8.80;58.60;;;;;;5013855;28;19925;-78
2023/05/04 00:20:20;;;;;;;;;;;8.80;58.60;;;;;;5014529;28;19953;-78
2023/05/04 00:22:46;;;;;;;;;;;8.70;58.60;;;;;;5001466;28;21972;-77
2023/05/04 00:25:11;;;;;;;;;;;8.70;58.60;;;;;;5017213;28;19929;-78
2023/05/04 00:27:37;;;;;;;;;;;8.70;58.70;;;;;;5030941;28;20482;-78
2023/05/04 00:30:02;;;;;;;;;;;8.70;58.80;;;;;;5014438;28;19921;-77
2023/05/04 00:32:29;;;;;;;;;;;8.60;58.70;;;;;;5015490;28;19924;-78
2023/05/04 00:34:55;;;;;;;;;;;8.60;58.80;;;;;;5010709;28;19925;-78
2023/05/04 00:37:20;;;;;;;;;;;8.50;58.80;;;;;;5031770;28;19975;-78
2023/05/04 00:39:46;;;;;;;;;;;8.50;58.80;;;;;;5016146;28;19920;-78
2023/05/04 00:42:11;;;;;;;;;;;8.50;58.90;;;;;;5015044;28;20284;-77
2023/05/04 00:44:40;;;;;;;;;;;8.40;58.80;;;;;;5030538;28;19925;-77
2023/05/04 00:47:06;;;;;;;;;;;8.40;58.90;;;;;;5032799;28;19940;-77
2023/05/04 00:49:31;;;;;;;;;;;8.40;59.00;;;;;;5031574;28;19921;-77
2023/05/04 00:51:57;;;;;;;;;;;8.30;58.90;;;;;;5012067;28;19921;-78
2023/05/04 00:54:22;;;;;;;;;;;8.30;59.00;;;;;;5017691;28;19982;-78
2023/05/04 00:56:48;;;;;;;;;;;8.20;59.00;;;;;;5013078;28;20221;-78
2023/05/04 00:59:13;;;;;;;;;;;8.20;59.00;;;;;;4999013;28;19929;-78
2023/05/04 01:01:39;;;;;;;;;;;8.20;59.00;;;;;;5011592;28;19940;-78
2023/05/04 01:04:04;;;;;;;;;;;8.20;59.10;;;;;;5016657;28;19932;-77
2023/05/04 01:06:33;;;;;;;;;;;8.10;59.10;;;;;;5013808;28;20000;-78
2023/05/04 01:09:02;;;;;;;;;;;8.10;59.10;;;;;;5026481;28;19927;-78
2023/05/04 01:11:51;;;;;;;;;;;8.10;59.20;;;;;;5011695;28;20020;-78
2023/05/04 01:14:16;;;;;;;;;;;8.00;59.20;;;;;;5017911;28;19921;-78
2023/05/04 01:16:42;;;;;;;;;;;8.00;59.20;;;;;;5012293;28;20037;-78
2023/05/04 01:19:07;;;;;;;;;;;8.00;59.30;;;;;;5014322;28;19928;-78
2023/05/04 01:21:34;;;;;;;;;;;7.90;59.20;;;;;;5012944;28;19925;-78
2023/05/04 01:23:59;;;;;;;;;;;7.90;59.20;;;;;;4976989;28;20056;-78
2023/05/04 01:26:28;;;;;;;;;;;7.90;59.20;;;;;;5016056;28;19921;-78
2023/05/04 01:29:03;;;;;;;;;;;7.80;59.30;;;;;;5012476;28;22162;-77
2023/05/04 01:31:29;;;;;;;;;;;7.80;59.30;;;;;;5015829;28;20440;-77
2023/05/04 01:33:54;;;;;;;;;;;7.80;59.30;;;;;;5011905;28;19928;-77
2023/05/04 01:36:20;;;;;;;;;;;7.70;59.30;;;;;;5016730;28;19974;-77
2023/05/04 01:38:48;;;;;;;;;;;7.70;59.40;;;;;;5013868;28;19967;-78
2023/05/04 01:41:14;;;;;;;;;;;7.70;59.40;;;;;;5033712;28;20384;-78
2023/05/04 01:43:39;;;;;;;;;;;7.70;59.40;;;;;;4996301;28;19970;-78
2023/05/04 01:46:05;;;;;;;;;;;7.60;59.40;;;;;;5013689;28;19928;-78
2023/05/04 01:48:30;;;;;;;;;;;7.60;59.40;;;;;;5030102;28;19921;-78
2023/05/04 01:50:56;;;;;;;;;;;7.60;59.50;;;;;;4999114;28;20474;-78
2023/05/04 01:53:21;;;;;;;;;;;7.50;59.50;;;;;;5016090;28;19974;-77
2023/05/04 01:55:47;;;;;;;;;;;7.50;59.50;;;;;;5006811;28;19934;-78
2023/05/04 01:58:12;;;;;;;;;;;7.50;59.50;;;;;;5014279;28;21037;-78
2023/05/04 02:00:37;;;;;;;;;;;7.50;59.60;;;;;;5031605;28;19937;-77
2023/05/04 02:03:03;;;;;;;;;;;7.40;59.60;;;;;;5008842;28;19928;-77
2023/05/04 02:05:28;;;;;;;;;;;7.40;59.60;;;;;;5012430;28;20011;-78
2023/05/04 02:07:54;;;;;;;;;;;7.40;59.70;;;;;;5026468;28;21296;-78
2023/05/04 02:10:19;;;;;;;;;;;7.30;59.60;;;;;;5028442;28;19928;-78
2023/05/04 02:12:45;;;;;;;;;;;7.30;59.60;;;;;;4994276;28;19917;-78
2023/05/04 02:15:10;;;;;;;;;;;7.30;59.70;;;;;;5030096;28;19928;-78
2023/05/04 02:17:36;;;;;;;;;;;7.30;59.70;;;;;;5010366;28;19921;-78
2023/05/04 02:20:03;;;;;;;;;;;7.30;59.70;;;;;;5029021;28;19924;-78
2023/05/04 02:22:28;;;;;;;;;;;7.20;59.70;;;;;;5013783;28;19929;-78
2023/05/04 02:24:54;;;;;;;;;;;7.20;59.70;;;;;;5012468;28;19935;-78
2023/05/04 02:27:19;;;;;;;;;;;7.20;59.70;;;;;;5013842;28;19925;-78
2023/05/04 02:29:45;;;;;;;;;;;7.20;59.80;;;;;;5025812;28;20323;-79
2023/05/04 02:32:10;;;;;;;;;;;7.10;59.80;;;;;;5009776;28;19951;-78
2023/05/04 02:34:36;;;;;;;;;;;7.10;59.80;;;;;;5009986;28;20714;-78
2023/05/04 02:37:01;;;;;;;;;;;7.10;59.80;;;;;;5000100;28;19932;-78
2023/05/04 02:39:26;;;;;;;;;;;7.00;59.80;;;;;;5015045;28;19921;-78
2023/05/04 02:41:52;;;;;;;;;;;7.00;59.90;;;;;;5027997;28;19921;-77
2023/05/04 02:44:17;;;;;;;;;;;7.00;60.00;;;;;;5012807;28;20039;-77
2023/05/04 02:46:43;;;;;;;;;;;7.00;59.90;;;;;;5025270;28;19928;-78
2023/05/04 02:49:08;;;;;;;;;;;7.00;59.90;;;;;;4995888;28;20039;-79
2023/05/04 02:51:34;;;;;;;;;;;6.90;60.00;;;;;;5030850;28;20304;-78
2023/05/04 02:53:59;;;;;;;;;;;6.90;60.00;;;;;;5028115;28;19928;-78
2023/05/04 02:56:25;;;;;;;;;;;6.90;60.00;;;;;;5013335;28;19921;-78
2023/05/04 02:58:50;;;;;;;;;;;6.80;60.00;;;;;;5008778;28;19928;-78
2023/05/04 03:01:15;;;;;;;;;;;6.80;60.00;;;;;;5006588;28;19972;-78
2023/05/04 03:03:41;;;;;;;;;;;6.80;60.10;;;;;;5010142;28;19927;-78
2023/05/04 03:06:06;;;;;;;;;;;6.70;60.10;;;;;;5026529;28;19956;-78
2023/05/04 03:08:32;;;;;;;;;;;6.70;60.10;;;;;;5027852;28;19932;-78
2023/05/04 03:10:57;;;;;;;;;;;6.70;60.20;;;;;;4992953;28;19921;-78
2023/05/04 03:13:23;;;;;;;;;;;6.60;60.10;;;;;;5012354;28;19928;-77
2023/05/04 03:15:48;;;;;;;;;;;6.60;60.10;;;;;;5011077;28;20602;-78
2023/05/04 03:18:14;;;;;;;;;;;6.60;60.20;;;;;;4997790;28;19960;-78
2023/05/04 03:20:39;;;;;;;;;;;6.60;60.20;;;;;;5008193;28;19925;-78
2023/05/04 03:23:05;;;;;;;;;;;6.60;60.30;;;;;;5013257;28;19917;-77
2023/05/04 03:25:30;;;;;;;;;;;6.50;60.30;;;;;;5010834;28;19925;-78
2023/05/04 03:27:56;;;;;;;;;;;6.50;60.40;;;;;;4996197;28;19984;-78
2023/05/04 03:30:21;;;;;;;;;;;6.50;60.30;;;;;;5008696;28;19920;-78
2023/05/04 03:32:47;;;;;;;;;;;6.50;60.40;;;;;;5029442;28;19960;-78
2023/05/04 03:35:13;;;;;;;;;;;6.40;60.40;;;;;;5011833;28;20555;-78
2023/05/04 03:37:38;;;;;;;;;;;6.40;60.40;;;;;;5031783;28;19928;-78
2023/05/04 03:40:04;;;;;;;;;;;6.40;60.40;;;;;;5030879;28;19924;-78
2023/05/04 03:42:29;;;;;;;;;;;6.40;60.50;;;;;;5035133;28;20610;-77
2023/05/04 03:44:55;;;;;;;;;;;6.30;60.40;;;;;;4999559;28;19936;-78
2023/05/04 03:47:20;;;;;;;;;;;6.30;60.40;;;;;;5014320;28;21424;-78
2023/05/04 03:49:46;;;;;;;;;;;6.30;60.50;;;;;;5021018;28;20431;-77
2023/05/04 03:52:12;;;;;;;;;;;6.30;60.60;;;;;;5012567;28;19920;-77
2023/05/04 03:54:37;;;;;;;;;;;6.30;60.60;;;;;;5011814;28;19920;-77
2023/05/04 03:57:03;;;;;;;;;;;6.20;60.50;;;;;;5000683;28;20007;-78
2023/05/04 03:59:29;;;;;;;;;;;6.20;60.60;;;;;;5032792;28;19928;-77
2023/05/04 04:01:54;;;;;;;;;;;6.20;60.60;;;;;;5014706;28;19994;-77
2023/05/04 04:04:20;;;;;;;;;;;6.10;60.60;;;;;;5012602;28;20028;-78
2023/05/04 04:06:45;;;;;;;;;;;6.10;60.60;;;;;;5016368;28;19932;-78
2023/05/04 04:09:11;;;;;;;;;;;6.10;60.70;;;;;;5016722;28;19921;-77
2023/05/04 04:11:36;;;;;;;;;;;6.10;60.70;;;;;;5008986;28;19963;-77
2023/05/04 04:14:02;;;;;;;;;;;6.10;60.70;;;;;;5014865;28;19920;-77
2023/05/04 04:16:27;;;;;;;;;;;6.10;60.80;;;;;;5031551;28;19921;-77
2023/05/04 04:18:53;;;;;;;;;;;6.10;60.80;;;;;;5014361;28;20031;-78
2023/05/04 04:21:18;;;;;;;;;;;6.10;60.80;;;;;;5018036;28;19921;-78
2023/05/04 04:23:43;;;;;;;;;;;6.10;60.80;;;;;;5019149;28;19927;-78
2023/05/04 04:26:09;;;;;;;;;;;6.10;60.80;;;;;;5031487;28;19934;-78
2023/05/04 04:28:35;;;;;;;;;;;6.00;60.80;;;;;;5011427;28;20383;-78
2023/05/04 04:31:02;;;;;;;;;;;6.00;60.80;;;;;;5014143;28;19925;-78
2023/05/04 04:33:27;;;;;;;;;;;6.00;60.80;;;;;;5032822;28;19921;-78
2023/05/04 04:35:53;;;;;;;;;;;6.00;60.80;;;;;;5011110;28;19921;-78
2023/05/04 04:38:18;;;;;;;;;;;6.10;60.90;;;;;;5011820;28;19921;-78
2023/05/04 04:40:43;;;;;;;;;;;6.10;60.90;;;;;;5011120;28;19983;-78
2023/05/04 04:43:10;;;;;;;;;;;6.10;60.90;;;;;;5030347;28;19947;-78
2023/05/04 04:45:35;;;;;;;;;;;6.10;60.90;;;;;;5011113;28;19924;-78
2023/05/04 04:48:02;;;;;;;;;;;6.10;60.80;;;;;;5009673;28;21379;-78
2023/05/04 04:50:28;;;;;;;;;;;6.10;60.90;;;;;;5015981;28;19921;-78
2023/05/04 04:52:54;;;;;;;;;;;6.10;60.90;;;;;;5014134;28;20372;-77
2023/05/04 04:55:19;;;;;;;;;;;6.10;60.80;;;;;;5011108;28;19932;-79
2023/05/04 04:57:45;;;;;;;;;;;6.20;60.90;;;;;;5032098;28;19967;-77
2023/05/04 05:00:13;;;;;;;;;;;6.20;60.90;;;;;;5029769;28;19946;-78
2023/05/04 05:02:38;;;;;;;;;;;6.20;60.80;;;;;;5012907;28;19925;-77
2023/05/04 05:05:04;;;;;;;;;;;6.20;60.80;;;;;;5012280;28;19932;-78
2023/05/04 05:07:31;;;;;;;;;;;6.30;60.90;;;;;;5033344;28;20513;-77
2023/05/04 05:09:56;;;;;;;;;;;6.30;60.80;;;;;;5013607;28;19953;-77
2023/05/04 05:12:22;;;;;;;;;;;6.40;60.90;;;;;;4997631;28;19999;-78
2023/05/04 05:14:49;;;;;;;;;;;6.40;60.90;;;;;;5014102;28;19928;-78
2023/05/04 05:17:15;;;;;;;;;;;6.50;60.90;;;;;;5012787;28;20456;-78
2023/05/04 05:19:40;;;;;;;;;;;6.50;60.90;;;;;;5028928;28;20016;-78
2023/05/04 05:22:06;;;;;;;;;;;6.50;60.80;;;;;;5014208;28;19928;-78
2023/05/04 05:24:31;;;;;;;;;;;6.50;60.80;;;;;;4998451;28;19956;-77
2023/05/04 05:26:57;;;;;;;;;;;6.60;60.80;;;;;;5009506;28;20319;-78
2023/05/04 05:29:22;;;;;;;;;;;6.60;60.80;;;;;;5030772;28;19928;-78
2023/05/04 05:31:48;;;;;;;;;;;6.70;60.80;;;;;;5015156;28;20888;-78
2023/05/04 05:34:13;;;;;;;;;;;6.80;61.60;;;;;;5030499;28;19925;-78
2023/05/04 05:36:39;;;;;;;;;;;6.80;60.70;;;;;;5014496;28;19924;-78
2023/05/04 05:39:04;;;;;;;;;;;6.90;60.80;;;;;;5013562;28;20085;-78
2023/05/04 05:41:30;;;;;;;;;;;6.90;60.70;;;;;;5031724;28;19925;-78
2023/05/04 05:43:55;;;;;;;;;;;7.00;60.70;;;;;;5009453;28;20024;-78
2023/05/04 05:46:21;;;;;;;;;;;7.10;60.70;;;;;;5027173;28;19921;-78
2023/05/04 05:48:47;;;;;;;;;;;7.10;60.70;;;;;;5028461;28;20090;-78
2023/05/04 05:51:12;;;;;;;;;;;7.20;60.60;;;;;;5013239;28;19925;-78
2023/05/04 05:53:38;;;;;;;;;;;7.30;60.60;;;;;;5028396;28;19921;-77
2023/05/04 05:56:03;;;;;;;;;;;7.40;60.70;;;;;;5028942;28;19921;-78
2023/05/04 05:58:29;;;;;;;;;;;7.40;60.60;;;;;;5030595;28;19952;-77
2023/05/04 06:00:54;;;;;;;;;;;7.50;60.50;;;;;;5025761;28;19933;-78
2023/05/04 06:03:20;;;;;;;;;;;7.60;60.50;;;;;;5013068;28;19929;-77
2023/05/04 06:05:45;;;;;;;;;;;7.70;61.00;;;;;;5029795;28;20633;-77
2023/05/04 06:08:11;;;;;;;;;;;7.70;60.40;;;;;;5029775;28;19921;-78
2023/05/04 06:10:36;;;;;;;;;;;7.80;60.30;;;;;;5012529;28;19921;-78
2023/05/04 06:13:02;;;;;;;;;;;7.90;60.30;;;;;;4996761;28;20415;-78
2023/05/04 06:15:27;;;;;;;;;;;8.00;60.30;;;;;;5012684;28;20126;-78
2023/05/04 06:17:52;;;;;;;;;;;8.10;60.20;;;;;;5009622;28;19932;-78
2023/05/04 06:20:18;;;;;;;;;;;8.30;60.20;;;;;;5030937;28;19921;-78
2023/05/04 06:22:43;;;;;;;;;;;8.30;60.10;;;;;;5010146;28;20597;-78
2023/05/04 06:25:10;;;;;;;;;;;8.50;60.10;;;;;;4995429;28;19964;-78
2023/05/04 06:27:35;;;;;;;;;;;8.60;60.00;;;;;;5002154;28;20329;-78
2023/05/04 06:30:01;;;;;;;;;;;8.60;59.90;;;;;;4997760;28;20412;-77
2023/05/04 06:32:26;;;;;;;;;;;8.80;59.90;;;;;;5030767;28;20622;-78
2023/05/04 06:34:53;;;;;;;;;;;8.90;60.00;;;;;;5013873;28;20737;-78
2023/05/04 06:37:19;;;;;;;;;;;9.00;59.80;;;;;;5013395;28;20350;-78
2023/05/04 06:39:44;;;;;;;;;;;9.10;59.80;;;;;;5027089;28;19917;-77
2023/05/04 06:42:11;;;;;;;;;;;9.20;59.70;;;;;;4996828;28;19921;-77
2023/05/04 06:44:36;;;;;;;;;;;9.30;59.60;;;;;;4995959;28;19931;-78
2023/05/04 06:47:06;;;;;;;;;;;9.50;59.60;;;;;;5008512;28;21456;-78
2023/05/04 06:49:31;;;;;;;;;;;9.70;59.50;;;;;;5009191;28;19965;-77
2023/05/04 06:51:57;;;;;;;;;;;9.80;59.50;;;;;;4994178;28;20014;-78
2023/05/04 06:54:22;;;;;;;;;;;9.90;59.40;;;;;;5009026;28;20362;-78
2023/05/04 06:56:47;;;;;;;;;;;10.10;59.30;;;;;;5029407;28;19923;-78
2023/05/04 06:59:13;;;;;;;;;;;10.20;59.30;;;;;;5009641;28;19964;-78
2023/05/04 07:04:49;;;;;;;;;;;10.50;59.10;;;;;;5027298;28;19936;-77
2023/05/04 07:07:14;;;;;;;;;;;10.70;59.10;;;;;;5010062;28;19920;-78
2023/05/04 07:09:40;;;;;;;;;;;10.90;58.90;;;;;;5026970;28;20018;-78
2023/05/04 07:12:06;;;;;;;;;;;11.00;58.80;;;;;;5000442;28;19921;-78
2023/05/04 07:14:31;;;;;;;;;;;11.20;58.70;;;;;;5030133;28;20383;-78
2023/05/04 07:16:57;;;;;;;;;;;11.40;58.70;;;;;;5026090;28;20299;-78
2023/05/04 07:19:22;;;;;;;;;;;11.50;58.50;;;;;;5027416;28;20034;-78
2023/05/04 07:21:47;;;;;;;;;;;11.70;58.50;;;;;;5009782;28;19928;-78
2023/05/04 07:24:13;;;;;;;;;;;11.80;58.40;;;;;;5013945;28;20923;-78
2023/05/04 07:26:39;;;;;;;;;;;12.00;58.30;;;;;;5012151;28;20015;-78
2023/05/04 07:29:04;;;;;;;;;;;12.10;58.90;;;;;;5012597;28;19921;-78
2023/05/04 07:31:30;;;;;;;;;;;12.30;58.10;;;;;;5012764;28;20391;-78
2023/05/04 07:33:55;;;;;;;;;;;12.40;58.00;;;;;;5022852;28;19929;-78
2023/05/04 07:36:23;;;;;;;;;;;12.60;57.90;;;;;;5016739;28;19921;-77
2023/05/04 07:38:49;;;;;;;;;;;12.80;57.90;;;;;;5028352;28;19921;-78
2023/05/04 07:41:14;;;;;;;;;;;12.90;57.70;;;;;;5031795;28;19928;-78
2023/05/04 07:43:40;;;;;;;;;;;13.10;57.60;;;;;;5011669;28;19928;-78
2023/05/04 07:46:05;;;;;;;;;;;13.30;57.60;;;;;;5027650;28;19972;-77
2023/05/04 07:48:32;;;;;;;;;;;13.50;57.50;;;;;;5012054;28;19921;-78
2023/05/04 07:50:57;;;;;;;;;;;13.70;57.40;;;;;;5009947;28;19921;-78
2023/05/04 07:53:25;;;;;;;;;;;13.90;57.30;;;;;;5011293;28;20536;-77
2023/05/04 07:55:50;;;;;;;;;;;14.10;57.20;;;;;;5011457;28;19936;-78
2023/05/04 07:58:16;;;;;;;;;;;14.20;57.00;;;;;;5026110;28;19920;-78
2023/05/04 08:00:41;;;;;;;;;;;14.40;56.90;;;;;;5014077;28;20612;-78
2023/05/04 08:03:07;;;;;;;;;;;14.60;56.80;;;;;;5024840;28;19920;-78
2023/05/04 08:05:32;;;;;;;;;;;14.80;56.70;;;;;;5012702;28;20016;-78
2023/05/04 08:07:57;;;;;;;;;;;14.90;56.60;;;;;;5024615;28;19991;-78
2023/05/04 08:10:23;;;;;;;;;;;15.10;56.50;;;;;;5029876;28;19988;-78
2023/05/04 08:12:48;;;;;;;;;;;15.30;56.40;;;;;;5028417;28;20007;-79
2023/05/04 08:15:15;;;;;;;;;;;15.50;56.30;;;;;;5013408;28;19933;-78
2023/05/04 08:17:41;;;;;;;;;;;15.70;56.20;;;;;;5010554;28;20022;-78
2023/05/04 08:20:06;;;;;;;;;;;15.90;56.10;;;;;;5010412;28;19952;-78
2023/05/04 08:22:32;;;;;;;;;;;16.10;55.90;;;;;;5007022;28;20509;-78
2023/05/04 08:24:57;;;;;;;;;;;16.20;55.70;;;;;;5029051;28;19924;-78
2023/05/04 08:27:23;;;;;;;;;;;16.40;55.60;;;;;;5017753;28;19928;-78
2023/05/04 08:29:48;;;;;;;;;;;16.60;55.50;;;;;;5016444;28;19925;-78
2023/05/04 08:32:14;;;;;;;;;;;16.70;55.40;;;;;;5018478;28;20399;-78
2023/05/04 08:34:39;;;;;;;;;;;16.90;55.30;;;;;;5016908;28;19924;-78
2023/05/04 08:37:05;;;;;;;;;;;17.00;55.30;;;;;;5013603;28;19921;-78
2023/05/04 08:39:30;;;;;;;;;;;17.30;55.20;;;;;;5033434;28;19958;-79
2023/05/04 08:41:56;;;;;;;;;;;17.40;55.00;;;;;;4999265;28;19920;-78
2023/05/04 08:44:21;;;;;;;;;;;17.70;55.00;;;;;;4987100;28;20846;-75
2023/05/04 08:46:51;;;;;;;;;;;17.80;54.80;;;;;;5027167;28;19940;-78
2023/05/04 08:49:17;;;;;;;;;;;18.00;54.70;;;;;;5016000;28;19924;-78
2023/05/04 08:51:43;;;;;;;;;;;18.30;54.60;;;;;;5015388;28;20042;-78
2023/05/04 08:54:09;;;;;;;;;;;18.50;54.40;;;;;;5016318;28;20569;-79
2023/05/04 08:56:35;;;;;;;;;;;18.70;54.30;;;;;;5013845;28;19917;-78
2023/05/04 08:59:02;;;;;;;;;;;18.80;54.10;;;;;;5034523;28;19924;-78
2023/05/04 09:01:28;;;;;;;;;;;19.10;54.10;;;;;;5012683;28;20391;-77
2023/05/04 09:03:53;;;;;;;;;;;19.30;53.90;;;;;;5026704;28;20607;-77
2023/05/04 09:06:18;;;;;;;;;;;19.50;53.90;;;;;;5012801;28;20037;-77
2023/05/04 09:08:44;;;;;;;;;;;19.70;53.70;;;;;;4997076;28;19920;-77
2023/05/04 09:11:09;;;;;;;;;;;19.90;53.50;;;;;;5026737;28;19998;-77
2023/05/04 09:13:35;;;;;;;;;;;20.20;53.40;;;;;;5013524;28;20353;-77
2023/05/04 09:16:02;;;;;;;;;;;20.30;53.10;;;;;;5015233;28;19925;-77
2023/05/04 09:18:37;;;;;;;;;;;20.60;53.10;;;;;;5012759;28;20272;-77
2023/05/04 09:21:03;;;;;;;;;;;20.80;53.00;;;;;;5013146;28;19940;-77
2023/05/04 09:23:28;;;;;;;;;;;20.90;52.80;;;;;;5001346;28;19951;-76
2023/05/04 09:25:54;;;;;;;;;;;21.10;52.70;;;;;;5012646;28;21545;-77
2023/05/04 09:28:20;;;;;;;;;;;21.30;52.50;;;;;;5014468;28;20444;-77
2023/05/04 09:30:47;;;;;;;;;;;21.50;52.40;;;;;;5012644;28;19921;-77
2023/05/04 09:33:14;;;;;;;;;;;21.60;52.30;;;;;;4993975;28;19932;-77
2023/05/04 09:35:40;;;;;;;;;;;21.90;52.20;;;;;;5011611;28;19921;-77
2023/05/04 09:38:06;;;;;;;;;;;22.10;52.00;;;;;;5010276;28;19921;-77
2023/05/04 09:40:35;;;;;;;;;;;22.30;51.80;;;;;;4995392;28;19936;-77
2023/05/04 09:43:00;;;;;;;;;;;22.40;51.60;;;;;;5012650;28;19921;-77
2023/05/04 09:45:27;;;;;;;;;;;22.50;51.60;;;;;;5014955;28;19924;-78
2023/05/04 09:47:54;;;;;;;;;;;22.70;51.50;;;;;;4996863;28;20000;-77
2023/05/04 09:50:24;;;;;;;;;;;22.90;51.40;;;;;;5031707;28;19921;-77
2023/05/04 09:52:49;;;;;;;;;;;23.10;51.30;;;;;;5028711;28;19921;-77
2023/05/04 09:55:15;;;;;;;;;;;23.30;51.10;;;;;;5029843;28;19970;-77
2023/05/04 09:57:41;;;;;;;;;;;23.50;51.00;;;;;;5010004;28;19960;-77
2023/05/04 10:00:08;;;;;;;;;;;23.60;50.90;;;;;;5010636;28;22403;-77
2023/05/04 10:02:34;;;;;;;;;;;23.80;50.90;;;;;;5030596;28;19925;-77
2023/05/04 10:04:59;;;;;;;;;;;23.80;50.80;;;;;;5024388;28;20541;-77
2023/05/04 10:07:24;;;;;;;;;;;23.90;50.70;;;;;;5010457;28;20486;-77
2023/05/04 10:09:50;;;;;;;;;;;24.00;50.60;;;;;;5024916;28;19928;-77
2023/05/04 10:12:16;;;;;;;;;;;24.10;50.60;;;;;;5014878;28;20641;-77
2023/05/04 10:14:45;;;;;;;;;;;24.30;50.50;;;;;;5011444;28;19943;-77
2023/05/04 10:17:16;;;;;;;;;;;24.40;50.40;;;;;;5011961;28;20450;-77
2023/05/04 10:20:02;;;;;;;;;;;24.50;50.30;;;;;;5010718;28;19921;-77
2023/05/04 10:22:27;;;;;;;;;;;24.70;50.20;;;;;;5028382;28;19921;-77
2023/05/04 10:24:59;;;;;;;;;;;24.90;50.10;;;;;;5027458;28;19931;-77
2023/05/04 10:27:43;;;;;;;;;;;25.00;50.00;;;;;;5010436;28;20478;-77
2023/05/04 10:30:09;;;;;;;;;;;25.10;49.80;;;;;;5028124;28;19951;-77
2023/05/04 10:32:38;;;;;;;;;;;25.20;49.80;;;;;;5008761;28;19916;-77
2023/05/04 10:35:04;;;;;;;;;;;25.30;49.70;;;;;;5009067;28;19921;-77
2023/05/04 10:37:30;;;;;;;;;;;25.40;49.70;;;;;;5011722;28;19970;-77
2023/05/04 10:39:56;;;;;;;;;;;25.50;49.60;;;;;;5026169;28;19924;-78
2023/05/04 10:42:22;;;;;;;;;;;25.60;49.50;;;;;;5009643;28;20464;-77
2023/05/04 10:44:48;;;;;;;;;;;25.70;49.50;;;;;;5012580;28;20575;-77
2023/05/04 10:47:14;;;;;;;;;;;25.90;49.50;;;;;;4996505;28;19925;-78
2023/05/04 10:49:39;;;;;;;;;;;26.00;49.30;;;;;;5027951;28;19921;-77
2023/05/04 10:52:05;;;;;;;;;;;26.10;49.30;;;;;;4996656;28;19927;-77
2023/05/04 10:54:30;;;;;;;;;;;26.20;49.30;;;;;;5029008;28;19956;-77
2023/05/04 10:57:00;;;;;;;;;;;26.30;49.20;;;;;;4994709;28;19966;-78
2023/05/04 10:59:26;;;;;;;;;;;26.50;49.20;;;;;;5031320;28;19980;-78
2023/05/04 11:01:51;;;;;;;;;;;26.60;49.00;;;;;;5010957;28;19935;-78
2023/05/04 11:04:18;;;;;;;;;;;26.70;48.90;;;;;;4997913;28;20676;-78
2023/05/04 11:06:43;;;;;;;;;;;26.90;48.90;;;;;;5011483;28;19921;-78
2023/05/04 11:09:11;;;;;;;;;;;27.10;48.90;;;;;;5011135;28;20691;-78
2023/05/04 11:11:37;;;;;;;;;;;27.20;48.70;;;;;;5013904;28;19921;-78
2023/05/04 11:14:02;;;;;;;;;;;27.40;48.60;;;;;;5010257;28;19932;-78
2023/05/04 11:16:28;;;;;;;;;;;27.50;48.50;;;;;;5014410;28;20530;-78
2023/05/04 11:18:53;;;;;;;;;;;27.70;48.40;;;;;;5009962;28;19921;-79
2023/05/04 11:21:22;;;;;;;;;;;27.80;48.30;;;;;;5031405;28;19939;-78
2023/05/04 11:23:53;;;;;;;;;;;27.90;48.20;;;;;;5009533;28;19924;-78
2023/05/04 11:26:18;;;;;;;;;;;28.00;48.20;;;;;;5015350;28;20517;-78
2023/05/04 11:28:44;;;;;;;;;;;28.10;48.00;;;;;;5008849;28;20448;-78
2023/05/04 11:31:13;;;;;;;;;;;28.10;48.00;;;;;;5009453;28;19920;-78
2023/05/04 11:33:43;;;;;;;;;;;28.10;47.90;;;;;;5011579;28;19927;-79
2023/05/04 11:36:09;;;;;;;;;;;28.20;48.00;;;;;;5011461;28;19978;-78
2023/05/04 11:38:35;;;;;;;;;;;28.20;48.70;;;;;;4995515;28;19917;-78
2023/05/04 11:41:01;;;;;;;;;;;28.40;48.10;;;;;;5028312;28;20338;-79
2023/05/04 11:43:27;;;;;;;;;;;28.50;47.90;;;;;;5025819;28;20363;-78
2023/05/04 11:45:54;;;;;;;;;;;28.70;47.70;;;;;;5008779;28;20002;-77
2023/05/04 11:48:20;;;;;;;;;;;28.90;47.70;;;;;;4997919;28;19921;-79
2023/05/04 11:50:46;;;;;;;;;;;29.00;47.50;;;;;;4996710;28;19921;-78
2023/05/04 11:53:12;;;;;;;;;;;29.00;47.40;;;;;;4997835;28;20259;-79
2023/05/04 11:55:38;;;;;;;;;;;29.10;47.40;;;;;;5012593;28;19925;-78
2023/05/04 11:58:07;;;;;;;;;;;29.20;47.40;;;;;;5030334;28;19955;-78
2023/05/04 12:00:42;;;;;;;;;;;29.30;47.40;;;;;;5002963;28;19921;-78
2023/05/04 12:03:08;;;;;;;;;;;29.40;47.40;;;;;;5015217;28;20305;-78
2023/05/04 12:05:34;;;;;;;;;;;29.50;47.10;;;;;;5008971;28;19929;-78
2023/05/04 12:08:01;;;;;;;;;;;29.50;47.10;;;;;;5014223;28;19929;-78
2023/05/04 12:10:26;;;;;;;;;;;29.60;47.10;;;;;;5018650;28;19925;-78
2023/05/04 12:12:52;;;;;;;;;;;29.50;46.90;;;;;;5015372;28;19970;-79
2023/05/04 12:15:26;;;;;;;;;;;29.60;47.10;;;;;;5032336;28;19921;-78
2023/05/04 12:17:51;;;;;;;;;;;29.70;47.00;;;;;;5030638;28;19980;-78
2023/05/04 12:20:21;;;;;;;;;;;29.60;47.00;;;;;;5033445;28;19950;-78
2023/05/04 12:22:47;;;;;;;;;;;29.60;47.10;;;;;;5014671;28;20040;-77
2023/05/04 12:25:13;;;;;;;;;;;29.60;47.00;;;;;;5015415;28;20075;-79
2023/05/04 12:27:39;;;;;;;;;;;29.70;46.90;;;;;;4999296;28;19996;-78
2023/05/04 12:30:05;;;;;;;;;;;29.90;47.00;;;;;;5013582;28;19928;-80
2023/05/04 12:32:30;;;;;;;;;;;30.00;46.80;;;;;;5016410;28;19924;-79
2023/05/04 12:34:56;;;;;;;;;;;30.10;46.70;;;;;;5033225;28;19928;-79
2023/05/04 12:37:21;;;;;;;;;;;30.20;46.60;;;;;;5016367;28;19921;-79
2023/05/04 12:39:47;;;;;;;;;;;30.30;46.60;;;;;;5015985;28;20327;-78
2023/05/04 12:42:12;;;;;;;;;;;30.50;46.50;;;;;;5000397;28;19972;-79
2023/05/04 12:44:37;;;;;;;;;;;30.50;46.40;;;;;;5016012;28;19924;-79
2023/05/04 12:47:03;;;;;;;;;;;30.60;46.30;;;;;;5014086;28;20307;-79
2023/05/04 12:49:28;;;;;;;;;;;30.70;46.30;;;;;;5033117;28;19925;-79
2023/05/04 12:51:54;;;;;;;;;;;30.70;46.20;;;;;;5016684;28;20763;-79
2023/05/04 12:54:19;;;;;;;;;;;30.80;46.20;;;;;;5010635;28;19928;-78
2023/05/04 12:56:45;;;;;;;;;;;30.90;46.10;;;;;;5011628;28;19921;-78
2023/05/04 12:59:10;;;;;;;;;;;31.00;46.70;;;;;;5012975;28;19920;-78
2023/05/04 13:01:36;;;;;;;;;;;31.00;46.00;;;;;;5015095;28;19944;-78
2023/05/04 13:04:02;;;;;;;;;;;31.00;45.90;;;;;;5015603;28;20480;-78
2023/05/04 13:06:27;;;;;;;;;;;30.90;45.80;;;;;;4999398;28;19972;-79
2023/05/04 13:08:53;;;;;;;;;;;30.90;45.90;;;;;;5015769;28;19921;-78
2023/05/04 13:11:18;;;;;;;;;;;30.80;45.90;;;;;;5029629;28;20475;-79
2023/05/04 13:13:44;;;;;;;;;;;30.80;46.00;;;;;;5014143;28;19975;-77
2023/05/04 13:16:11;;;;;;;;;;;30.80;46.00;;;;;;5011562;28;19921;-78
2023/05/04 13:18:37;;;;;;;;;;;30.90;46.00;;;;;;4999166;28;19921;-78
2023/05/04 13:21:02;;;;;;;;;;;31.00;46.00;;;;;;5011467;28;19929;-78
2023/05/04 13:23:28;;;;;;;;;;;31.00;46.00;;;;;;4998891;28;19964;-78
2023/05/04 13:25:53;;;;;;;;;;;31.00;45.90;;;;;;5011234;28;20380;-78
2023/05/04 13:28:19;;;;;;;;;;;31.00;45.90;;;;;;5031270;28;19955;-77
2023/05/04 13:30:44;;;;;;;;;;;31.10;45.80;;;;;;5014852;28;20002;-78
2023/05/04 13:33:10;;;;;;;;;;;31.30;45.80;;;;;;5009295;28;20977;-79
2023/05/04 13:35:36;;;;;;;;;;;31.30;45.70;;;;;;5013396;28;19917;-79
2023/05/04 13:38:01;;;;;;;;;;;31.40;45.60;;;;;;5014409;28;19929;-78
2023/05/04 13:40:27;;;;;;;;;;;31.50;45.60;;;;;;5014006;28;19971;-78
2023/05/04 13:42:52;;;;;;;;;;;31.60;45.60;;;;;;5013621;28;19983;-78
2023/05/04 13:45:18;;;;;;;;;;;31.60;45.40;;;;;;5011451;28;19931;-79
2023/05/04 13:47:44;;;;;;;;;;;31.70;45.30;;;;;;5009926;28;20670;-78
2023/05/04 13:50:09;;;;;;;;;;;31.80;45.30;;;;;;5014937;28;20853;-78
2023/05/04 13:52:35;;;;;;;;;;;31.80;45.30;;;;;;5014386;28;19986;-78
2023/05/04 13:55:00;;;;;;;;;;;31.90;45.30;;;;;;5010213;28;20028;-78
2023/05/04 13:57:26;;;;;;;;;;;31.90;45.10;;;;;;4996954;28;20023;-78
2023/05/04 13:59:52;;;;;;;;;;;32.00;45.20;;;;;;5011760;28;20676;-80
2023/05/04 14:02:18;;;;;;;;;;;32.00;45.10;;;;;;5011955;28;19925;-78
2023/05/04 14:04:43;;;;;;;;;;;32.00;45.00;;;;;;5010455;28;19937;-78
2023/05/04 14:07:09;;;;;;;;;;;31.90;44.90;;;;;;4995674;28;19932;-78
2023/05/04 14:09:35;;;;;;;;;;;31.80;44.90;;;;;;5013691;28;21117;-78
2023/05/04 14:12:01;;;;;;;;;;;31.90;45.00;;;;;;5011020;28;19932;-78
2023/05/04 14:14:26;;;;;;;;;;;31.90;45.10;;;;;;4997727;28;19921;-79
2023/05/04 14:16:52;;;;;;;;;;;31.90;45.00;;;;;;5013749;28;19927;-78
2023/05/04 14:19:17;;;;;;;;;;;31.90;45.00;;;;;;5028169;28;19933;-78